Weather at Treviso-Sant'Angelo Airport

Public forecast

Using degrees Celsius for public forecast. Weather courtesy of forecast.io.

Current aviation weather report (METAR) for Treviso-Sant'Angelo Airport

Retrieved 2021/06/17 01:20 UTC (23 minutes ago):

LIPH 170120Z AUTO 04004KT 9999 FEW170 22/18 Q1016

Aviation forecast (TAF) for Treviso-Sant'Angelo Airport

Retrieved 2021-06-17 00:00 UTC (2 hours ago):

TAF LIPH 162300Z 1700/1724 VRB05KT CAVOK